createdAt,value
2022-09-28T00:00:56.889Z,82.89
2022-09-28T00:02:04.433Z,82.94
2022-09-28T00:03:06.591Z,82.88
2022-09-28T00:04:09.265Z,82.77
2022-09-28T00:05:12.169Z,82.79
2022-09-28T00:06:18.325Z,82.85
2022-09-28T00:07:19.880Z,83.06
2022-09-28T00:08:21.458Z,83.04
2022-09-28T00:09:25.423Z,83.17
2022-09-28T00:10:27.158Z,83.20
2022-09-28T00:11:29.079Z,83.19
2022-09-28T00:12:31.004Z,83.24
2022-09-28T00:13:34.708Z,83.46
2022-09-28T00:14:40.030Z,83.22
2022-09-28T00:15:41.934Z,83.33
2022-09-28T00:16:43.885Z,83.24
2022-09-28T00:17:45.535Z,83.29
2022-09-28T00:18:47.680Z,83.26
2022-09-28T00:19:49.344Z,83.18
2022-09-28T00:20:59.310Z,83.38
2022-09-28T00:22:00.915Z,83.30
2022-09-28T00:23:02.565Z,83.31
2022-09-28T00:24:18.487Z,83.22
2022-09-28T00:25:21.486Z,82.77
2022-09-28T00:26:23.355Z,82.97
2022-09-28T00:27:25.057Z,83.01
2022-09-28T00:28:27.048Z,83.04
2022-09-28T00:29:32.677Z,83.13
2022-09-28T00:30:34.321Z,83.16
2022-09-28T00:31:36.395Z,83.36
2022-09-28T00:32:38.780Z,83.28
2022-09-28T00:33:40.496Z,83.26
2022-09-28T00:34:45.318Z,83.47
2022-09-28T00:35:46.962Z,83.39
2022-09-28T00:36:48.891Z,83.43
2022-09-28T00:37:51.703Z,83.32
2022-09-28T00:38:57.574Z,83.20
2022-09-28T00:39:59.240Z,83.05
2022-09-28T00:41:01.144Z,83.17
2022-09-28T00:42:03.719Z,83.28
2022-09-28T00:43:23.978Z,83.18
2022-09-28T00:44:25.795Z,83.25
2022-09-28T00:45:29.174Z,83.16
2022-09-28T00:46:38.430Z,83.14
2022-09-28T00:47:48.934Z,83.17
2022-09-28T00:48:54.325Z,83.60
2022-09-28T00:49:55.959Z,83.29
2022-09-28T00:50:59.472Z,82.95
2022-09-28T00:52:02.959Z,82.62
2022-09-28T00:53:08.938Z,82.61
2022-09-28T00:54:11.594Z,82.57
2022-09-28T00:55:16.080Z,82.71
2022-09-28T00:56:20.940Z,82.57
2022-09-28T00:57:29.568Z,82.42
2022-09-28T00:58:33.208Z,82.35
2022-09-28T00:59:34.938Z,82.26
2022-09-28T01:00:37.288Z,82.16
2022-09-28T01:01:39.033Z,82.05
2022-09-28T01:02:41.615Z,82.08
2022-09-28T01:03:48.169Z,81.49
2022-09-28T01:04:51.694Z,81.35
2022-09-28T01:05:54.622Z,81.46
2022-09-28T01:06:58.484Z,81.33
2022-09-28T01:08:01.576Z,81.42
2022-09-28T01:09:05.446Z,81.49
2022-09-28T01:10:08.101Z,81.52
2022-09-28T01:11:12.183Z,81.65
2022-09-28T01:12:13.918Z,81.77
2022-09-28T01:13:16.674Z,81.59
2022-09-28T01:14:20.169Z,81.58
2022-09-28T01:15:22.733Z,81.72
2022-09-28T01:16:30.954Z,81.67
2022-09-28T01:17:43.901Z,81.73
2022-09-28T01:19:04.612Z,81.85
2022-09-28T01:20:10.899Z,81.59
2022-09-28T01:21:18.614Z,81.76
2022-09-28T01:22:22.393Z,81.97
2022-09-28T01:23:24.006Z,82.04
2022-09-28T01:24:44.347Z,81.89
2022-09-28T01:26:02.643Z,82.05
2022-09-28T01:27:10.477Z,82.05
2022-09-28T01:28:14.517Z,82.06
2022-09-28T01:29:38.648Z,82.00
2022-09-28T01:30:45.928Z,82.10
2022-09-28T01:31:52.354Z,82.32
2022-09-28T01:33:00.023Z,82.33
2022-09-28T01:34:12.637Z,82.21
2022-09-28T01:35:14.784Z,82.63
2022-09-28T01:36:17.022Z,82.71
2022-09-28T01:37:19.958Z,82.73
2022-09-28T01:38:24.752Z,83.05
2022-09-28T01:39:32.101Z,82.66
2022-09-28T01:40:35.996Z,82.92
2022-09-28T01:41:39.838Z,82.76
2022-09-28T01:42:44.398Z,82.82
2022-09-28T01:43:49.493Z,82.97
2022-09-28T01:44:54.771Z,82.89
2022-09-28T01:46:01.457Z,82.66
2022-09-28T01:47:04.376Z,82.98
2022-09-28T01:48:07.453Z,82.92
2022-09-28T01:49:14.402Z,83.10
2022-09-28T01:50:20.045Z,82.90
2022-09-28T01:51:25.084Z,83.15
2022-09-28T01:52:50.143Z,83.15
2022-09-28T01:53:59.914Z,83.35
2022-09-28T01:55:02.495Z,83.17
2022-09-28T01:56:15.659Z,83.44
2022-09-28T01:57:31.388Z,83.10
2022-09-28T01:58:44.433Z,83.28
2022-09-28T01:59:50.965Z,83.18
2022-09-28T02:00:55.549Z,83.13
2022-09-28T02:02:06.588Z,82.99
2022-09-28T02:03:16.356Z,83.07
2022-09-28T02:04:28.515Z,82.92
2022-09-28T02:05:32.627Z,83.05
2022-09-28T02:06:41.638Z,83.25
2022-09-28T02:07:54.063Z,83.22
2022-09-28T02:08:58.720Z,83.28
2022-09-28T02:10:10.690Z,83.42
2022-09-28T02:11:16.300Z,83.27
2022-09-28T02:12:22.624Z,83.26
2022-09-28T02:13:32.278Z,83.23
2022-09-28T02:14:37.766Z,83.22
2022-09-28T02:15:46.536Z,83.21
2022-09-28T02:16:50.362Z,83.19
2022-09-28T02:17:56.766Z,83.34
2022-09-28T02:18:58.554Z,83.28
2022-09-28T02:20:03.030Z,83.19
2022-09-28T02:21:15.784Z,83.33
2022-09-28T02:22:42.535Z,83.61
2022-09-28T02:23:50.718Z,83.72
2022-09-28T02:24:57.229Z,83.73
2022-09-28T02:26:06.170Z,83.69
2022-09-28T02:27:28.100Z,83.76
2022-09-28T02:28:29.946Z,83.73
2022-09-28T02:29:32.063Z,83.74
2022-09-28T02:30:36.123Z,83.86
2022-09-28T02:31:38.014Z,83.58
2022-09-28T02:32:42.133Z,83.72
2022-09-28T02:33:44.511Z,83.87
2022-09-28T02:34:46.325Z,83.84
2022-09-28T02:35:48.287Z,84.04
2022-09-28T02:36:50.047Z,84.18
2022-09-28T02:37:52.078Z,84.02
2022-09-28T02:38:57.825Z,84.12
2022-09-28T02:39:59.475Z,84.06
2022-09-28T02:41:09.513Z,83.98
2022-09-28T02:42:20.317Z,84.15
2022-09-28T02:43:24.233Z,84.21
2022-09-28T02:44:25.889Z,84.36
2022-09-28T02:45:39.173Z,84.32
2022-09-28T02:46:59.335Z,84.16
2022-09-28T02:48:13.256Z,84.21
2022-09-28T02:49:21.680Z,84.42
2022-09-28T02:50:39.321Z,84.60
2022-09-28T02:51:46.748Z,84.43
2022-09-28T02:53:18.639Z,84.36
2022-09-28T02:54:37.062Z,84.75
2022-09-28T02:55:44.726Z,84.25
2022-09-28T02:56:59.018Z,84.56
2022-09-28T02:58:26.968Z,84.60
2022-09-28T02:59:28.823Z,84.59
2022-09-28T03:00:34.050Z,84.51
2022-09-28T03:01:41.741Z,84.44
2022-09-28T03:02:58.625Z,84.38
2022-09-28T03:04:00.364Z,84.33
2022-09-28T03:05:10.611Z,84.47
2022-09-28T03:06:33.875Z,84.46
2022-09-28T03:07:48.258Z,84.26
2022-09-28T03:08:49.829Z,84.38
2022-09-28T03:10:05.215Z,84.17
2022-09-28T03:11:09.191Z,84.15
2022-09-28T03:12:13.263Z,84.18
2022-09-28T03:13:16.151Z,83.99
2022-09-28T03:14:18.188Z,84.10
2022-09-28T03:15:32.775Z,84.35
2022-09-28T03:16:34.979Z,84.37
2022-09-28T03:17:36.838Z,84.34
2022-09-28T03:18:47.653Z,84.31
2022-09-28T03:19:49.621Z,84.28
2022-09-28T03:20:51.948Z,84.32
2022-09-28T03:21:55.133Z,84.34
2022-09-28T03:23:23.272Z,84.53
2022-09-28T03:24:22.089Z,84.41
2022-09-28T03:25:23.790Z,84.26
2022-09-28T03:26:25.713Z,84.17
2022-09-28T03:27:27.429Z,84.04
2022-09-28T03:28:29.254Z,84.02
2022-09-28T03:29:32.561Z,83.87
2022-09-28T03:30:36.723Z,83.65
2022-09-28T03:31:38.662Z,83.60
2022-09-28T03:32:40.862Z,83.64
2022-09-28T03:33:45.960Z,83.51
2022-09-28T03:34:47.762Z,83.54
2022-09-28T03:35:50.064Z,83.59
2022-09-28T03:36:51.760Z,83.68
2022-09-28T03:37:54.513Z,83.70
2022-09-28T03:38:56.334Z,83.91
2022-09-28T03:39:58.370Z,83.82
2022-09-28T03:41:00.284Z,83.86
2022-09-28T03:42:04.723Z,83.88
2022-09-28T03:43:07.393Z,84.03
2022-09-28T03:44:09.349Z,83.72
2022-09-28T03:45:11.094Z,83.76
2022-09-28T03:46:13.075Z,83.82
2022-09-28T03:47:18.921Z,83.84
2022-09-28T03:48:25.144Z,83.78
2022-09-28T03:49:29.349Z,83.87
2022-09-28T03:50:31.013Z,83.88
2022-09-28T03:51:33.950Z,84.14
2022-09-28T03:52:35.542Z,83.97
2022-09-28T03:53:37.315Z,83.92
2022-09-28T03:54:39.117Z,83.93
2022-09-28T03:55:40.702Z,83.89
2022-09-28T03:56:42.466Z,83.96
2022-09-28T03:57:44.120Z,84.02
2022-09-28T03:58:45.855Z,84.03
2022-09-28T03:59:47.700Z,84.07
2022-09-28T04:00:49.504Z,83.87
2022-09-28T04:01:51.698Z,83.93
2022-09-28T04:02:53.588Z,83.89
2022-09-28T04:03:58.078Z,84.11
2022-09-28T04:05:00.277Z,84.05
2022-09-28T04:06:02.024Z,84.09
2022-09-28T04:07:03.738Z,84.06
2022-09-28T04:08:05.423Z,84.19
2022-09-28T04:09:07.253Z,84.22
2022-09-28T04:10:09.126Z,84.31
2022-09-28T04:11:13.898Z,84.42
2022-09-28T04:12:15.559Z,84.39
2022-09-28T04:13:17.210Z,84.34
2022-09-28T04:14:18.797Z,84.46
2022-09-28T04:15:20.402Z,84.53
2022-09-28T04:16:22.650Z,84.65
2022-09-28T04:17:39.931Z,84.79
2022-09-28T04:18:47.948Z,84.97
2022-09-28T04:20:12.179Z,85.25
2022-09-28T04:21:32.185Z,85.47
2022-09-28T04:22:44.218Z,85.60
2022-09-28T04:23:46.390Z,85.56
2022-09-28T04:24:48.108Z,85.87
2022-09-28T04:25:53.605Z,86.05
2022-09-28T04:27:18.184Z,86.27
2022-09-28T04:28:38.885Z,86.84
2022-09-28T04:29:42.728Z,87.03
2022-09-28T04:30:46.289Z,87.27
2022-09-28T04:31:49.367Z,87.56
2022-09-28T04:32:54.401Z,87.80
2022-09-28T04:33:57.163Z,87.83
2022-09-28T04:34:59.758Z,87.77
2022-09-28T04:36:01.720Z,87.93
2022-09-28T04:37:03.533Z,87.95
2022-09-28T04:38:05.439Z,87.91
2022-09-28T04:39:07.162Z,88.02
2022-09-28T04:40:09.259Z,87.76
2022-09-28T04:41:11.939Z,87.64
2022-09-28T04:42:14.261Z,87.57
2022-09-28T04:43:15.923Z,87.62
2022-09-28T04:44:17.710Z,87.49
2022-09-28T04:45:22.106Z,87.31
2022-09-28T04:46:24.391Z,87.36
2022-09-28T04:47:37.409Z,87.29
2022-09-28T04:49:14.460Z,87.37
2022-09-28T04:50:24.031Z,87.23
2022-09-28T04:51:41.469Z,87.25
2022-09-28T04:52:43.658Z,87.26
2022-09-28T04:53:45.408Z,87.30
2022-09-28T04:54:47.231Z,87.23
2022-09-28T04:55:56.138Z,87.19
2022-09-28T04:56:58.114Z,87.19
2022-09-28T04:58:03.067Z,87.15
2022-09-28T04:59:04.906Z,87.14
2022-09-28T05:00:10.548Z,87.26
2022-09-28T05:01:17.180Z,87.27
2022-09-28T05:02:48.308Z,87.50
2022-09-28T05:04:09.018Z,87.56
2022-09-28T05:05:17.989Z,87.73
2022-09-28T05:06:43.011Z,87.97
2022-09-28T05:07:45.634Z,88.19
2022-09-28T05:08:47.490Z,88.27
2022-09-28T05:09:50.111Z,88.35
2022-09-28T05:11:02.276Z,88.34
2022-09-28T05:12:09.791Z,88.71
2022-09-28T05:13:14.168Z,88.77
2022-09-28T05:14:16.241Z,88.82
2022-09-28T05:15:18.035Z,89.00
2022-09-28T05:16:19.930Z,89.02
2022-09-28T05:17:44.989Z,89.18
2022-09-28T05:19:05.752Z,89.33
2022-09-28T05:20:08.569Z,89.46
2022-09-28T05:21:14.173Z,89.29
2022-09-28T05:22:16.075Z,89.43
2022-09-28T05:23:22.640Z,89.56
2022-09-28T05:24:24.453Z,89.58
2022-09-28T05:25:27.029Z,89.72
2022-09-28T05:26:40.974Z,90.07
2022-09-28T05:27:45.024Z,90.13
2022-09-28T05:29:03.073Z,90.30
2022-09-28T05:30:08.085Z,90.34
2022-09-28T05:31:32.238Z,90.44
2022-09-28T05:32:54.374Z,90.43
2022-09-28T05:34:01.970Z,90.76
2022-09-28T05:35:05.722Z,90.79
2022-09-28T05:36:19.196Z,90.83
2022-09-28T05:37:20.798Z,91.01
2022-09-28T05:38:22.818Z,91.06
2022-09-28T05:39:24.575Z,91.19
2022-09-28T05:40:26.263Z,91.19
2022-09-28T05:41:28.090Z,91.29
2022-09-28T05:42:30.057Z,91.21
2022-09-28T05:43:32.833Z,91.16
2022-09-28T05:44:34.596Z,91.35
2022-09-28T05:45:37.884Z,91.48
2022-09-28T05:46:39.597Z,91.51
2022-09-28T05:47:45.675Z,91.54
2022-09-28T05:48:51.828Z,91.80
2022-09-28T05:49:54.058Z,91.64
2022-09-28T05:50:55.827Z,91.65
2022-09-28T05:51:57.514Z,91.66
2022-09-28T05:52:59.624Z,91.65
2022-09-28T05:54:05.607Z,91.68
2022-09-28T05:55:08.824Z,91.87
2022-09-28T05:56:10.673Z,91.68
2022-09-28T05:57:16.544Z,91.64
2022-09-28T05:58:18.282Z,91.61
2022-09-28T05:59:19.937Z,91.51
2022-09-28T06:00:22.684Z,91.53
2022-09-28T06:01:27.000Z,91.74
2022-09-28T06:02:29.881Z,91.64
2022-09-28T06:03:31.675Z,91.48
2022-09-28T06:04:33.801Z,91.19
2022-09-28T06:05:35.858Z,90.95
2022-09-28T06:06:38.419Z,90.91
2022-09-28T06:07:40.111Z,90.83
2022-09-28T06:08:45.826Z,90.50
2022-09-28T06:10:17.225Z,90.41
2022-09-28T06:11:21.122Z,90.30
2022-09-28T06:12:22.781Z,90.29
2022-09-28T06:13:29.544Z,90.19
2022-09-28T06:14:31.230Z,90.26
2022-09-28T06:15:34.107Z,90.10
2022-09-28T06:16:38.248Z,89.97
2022-09-28T06:17:43.941Z,89.89
2022-09-28T06:19:11.249Z,89.75
2022-09-28T06:20:42.493Z,89.79
2022-09-28T06:21:51.379Z,89.89
2022-09-28T06:22:53.419Z,89.95
2022-09-28T06:23:55.234Z,89.92
2022-09-28T06:24:57.133Z,89.98
2022-09-28T06:25:59.885Z,90.08
2022-09-28T06:27:01.495Z,89.96
2022-09-28T06:28:04.745Z,89.86
2022-09-28T06:29:06.512Z,89.78
2022-09-28T06:30:08.379Z,89.54
2022-09-28T06:31:10.326Z,89.53
2022-09-28T06:32:19.210Z,89.55
2022-09-28T06:33:25.278Z,89.47
2022-09-28T06:34:27.398Z,89.66
2022-09-28T06:35:31.566Z,89.87
2022-09-28T06:36:33.360Z,89.81
2022-09-28T06:37:35.150Z,90.02
2022-09-28T06:38:37.903Z,89.98
2022-09-28T06:39:39.673Z,89.96
2022-09-28T06:40:42.597Z,90.14
2022-09-28T06:41:44.394Z,89.88
2022-09-28T06:42:55.034Z,89.89
2022-09-28T06:44:17.116Z,89.63
2022-09-28T06:45:56.679Z,89.55
2022-09-28T06:47:04.090Z,89.51
2022-09-28T06:48:25.218Z,89.36
2022-09-28T06:49:35.421Z,89.21
2022-09-28T06:50:43.090Z,89.08
2022-09-28T06:52:08.062Z,89.22
2022-09-28T06:53:30.003Z,89.21
2022-09-28T06:54:35.317Z,89.18
2022-09-28T06:55:48.575Z,88.96
2022-09-28T06:56:50.223Z,88.96
2022-09-28T06:58:00.628Z,89.02
2022-09-28T06:59:02.661Z,87.79
2022-09-28T07:00:04.614Z,85.53
2022-09-28T07:01:06.437Z,85.50
2022-09-28T07:02:18.255Z,86.27
2022-09-28T07:03:38.843Z,86.23
2022-09-28T07:05:15.800Z,86.33
2022-09-28T07:06:40.950Z,86.31
2022-09-28T07:08:03.282Z,85.83
2022-09-28T07:09:32.891Z,85.61
2022-09-28T07:10:57.789Z,85.62
2022-09-28T07:12:14.984Z,85.13
2022-09-28T07:13:48.593Z,84.48
2022-09-28T07:14:56.756Z,84.15
2022-09-28T07:16:03.465Z,83.74
2022-09-28T07:17:13.517Z,83.15
2022-09-28T07:18:18.190Z,83.36
2022-09-28T07:19:19.890Z,83.44
2022-09-28T07:20:21.623Z,83.35
2022-09-28T07:21:29.943Z,83.57
2022-09-28T07:22:43.309Z,84.26
2022-09-28T07:23:54.569Z,84.60
2022-09-28T07:25:00.907Z,84.93
2022-09-28T07:26:24.042Z,85.09
2022-09-28T07:27:59.634Z,85.18
2022-09-28T07:29:24.941Z,85.42
2022-09-28T07:30:58.935Z,85.74
2022-09-28T07:32:39.699Z,86.02
2022-09-28T07:33:58.177Z,85.82
2022-09-28T07:35:17.721Z,85.79
2022-09-28T07:36:26.464Z,85.61
2022-09-28T07:37:28.517Z,85.54
2022-09-28T07:38:30.244Z,85.67
2022-09-28T07:39:52.048Z,85.50
2022-09-28T07:41:10.898Z,85.82
2022-09-28T07:42:17.420Z,86.12
2022-09-28T07:43:22.371Z,85.80
2022-09-28T07:44:26.257Z,86.01
2022-09-28T07:45:29.700Z,86.49
2022-09-28T07:46:32.208Z,86.52
2022-09-28T07:47:41.812Z,86.28
2022-09-28T07:49:14.981Z,85.92
2022-09-28T07:50:47.174Z,85.84
2022-09-28T07:52:05.773Z,85.87
2022-09-28T07:53:14.899Z,85.77
2022-09-28T07:54:32.256Z,85.77
2022-09-28T07:55:55.211Z,85.55
2022-09-28T07:57:16.755Z,85.62
2022-09-28T07:58:33.001Z,85.70
2022-09-28T07:59:54.990Z,85.74
2022-09-28T08:01:19.991Z,85.54
2022-09-28T08:02:22.330Z,85.35
2022-09-28T08:03:24.448Z,84.58
2022-09-28T08:04:27.847Z,84.53
2022-09-28T08:05:35.496Z,84.37
2022-09-28T08:06:37.274Z,84.13
2022-09-28T08:07:40.336Z,84.37
2022-09-28T08:08:44.440Z,84.34
2022-09-28T08:09:48.005Z,84.49
2022-09-28T08:11:02.081Z,84.21
2022-09-28T08:12:20.663Z,84.08
2022-09-28T08:13:44.949Z,83.78
2022-09-28T08:15:16.224Z,83.87
2022-09-28T08:16:22.576Z,83.78
2022-09-28T08:17:48.196Z,83.95
2022-09-28T08:18:51.848Z,83.94
2022-09-28T08:20:12.946Z,83.93
2022-09-28T08:21:33.540Z,83.66
2022-09-28T08:22:36.833Z,83.50
2022-09-28T08:23:38.744Z,83.41
2022-09-28T08:24:41.069Z,83.64
2022-09-28T08:25:49.197Z,83.47
2022-09-28T08:26:50.987Z,82.97
2022-09-28T08:27:54.305Z,82.81
2022-09-28T08:28:56.640Z,82.81
2022-09-28T08:30:27.773Z,82.37
2022-09-28T08:32:08.768Z,82.46
2022-09-28T08:33:13.759Z,82.44
2022-09-28T08:34:19.017Z,82.18
2022-09-28T08:35:45.422Z,82.00
2022-09-28T08:36:57.486Z,82.16
2022-09-28T08:38:19.040Z,81.50
2022-09-28T08:39:39.221Z,81.10
2022-09-28T08:41:15.068Z,81.05
2022-09-28T08:42:34.279Z,81.57
2022-09-28T08:44:02.042Z,81.31
2022-09-28T08:45:24.465Z,80.80
2022-09-28T08:47:07.353Z,81.16
2022-09-28T08:48:49.027Z,80.46
2022-09-28T08:50:22.241Z,79.90
2022-09-28T08:51:43.833Z,79.93
2022-09-28T08:52:59.270Z,80.13
2022-09-28T08:54:23.558Z,80.17
2022-09-28T08:55:28.173Z,79.97
2022-09-28T08:56:34.043Z,80.03
2022-09-28T08:57:41.562Z,80.38
2022-09-28T08:58:45.988Z,80.05
2022-09-28T08:59:51.709Z,79.93
2022-09-28T09:01:05.248Z,79.98
2022-09-28T09:02:13.852Z,78.50
2022-09-28T09:03:44.133Z,78.86
2022-09-28T09:05:14.397Z,76.13
2022-09-28T09:07:04.978Z,77.00
2022-09-28T09:08:23.460Z,77.43
2022-09-28T09:09:26.171Z,77.88
2022-09-28T09:10:31.174Z,77.64
2022-09-28T09:11:43.819Z,77.20
2022-09-28T09:13:04.190Z,77.86
2022-09-28T09:14:20.806Z,76.94
2022-09-28T09:15:41.150Z,76.00
2022-09-28T09:17:00.610Z,76.68
2022-09-28T09:18:25.736Z,76.32
2022-09-28T09:19:50.930Z,74.98
2022-09-28T09:21:00.830Z,75.06
2022-09-28T09:22:15.594Z,74.28
2022-09-28T09:23:18.163Z,75.14
2022-09-28T09:24:51.674Z,75.62
2022-09-28T09:25:58.879Z,74.66
2022-09-28T09:27:13.935Z,74.11
2022-09-28T09:28:27.718Z,73.25
2022-09-28T09:29:42.061Z,73.68
2022-09-28T09:30:49.482Z,73.38
2022-09-28T09:32:08.814Z,73.08
2022-09-28T09:33:33.592Z,72.50
2022-09-28T09:35:27.959Z,71.85
2022-09-28T09:36:55.488Z,71.97
2022-09-28T09:38:51.388Z,70.85
2022-09-28T09:40:25.858Z,69.47
2022-09-28T09:41:40.793Z,69.03
2022-09-28T09:43:17.870Z,68.74
2022-09-28T09:44:40.713Z,67.97
2022-09-28T09:46:13.986Z,67.34
2022-09-28T09:47:34.683Z,66.29
2022-09-28T09:48:42.264Z,65.78
2022-09-28T09:49:51.899Z,65.89
2022-09-28T09:50:57.347Z,66.86
2022-09-28T09:52:02.994Z,67.21
2022-09-28T09:53:23.566Z,67.02
2022-09-28T09:54:31.384Z,66.67
2022-09-28T09:55:45.155Z,66.09
2022-09-28T09:57:04.067Z,66.09
2022-09-28T09:58:40.665Z,66.11
2022-09-28T09:59:57.781Z,65.27
2022-09-28T10:01:19.529Z,66.04
2022-09-28T10:02:42.628Z,66.20
2022-09-28T10:03:55.697Z,66.15
2022-09-28T10:05:01.764Z,66.00
2022-09-28T10:06:15.884Z,65.36
2022-09-28T10:07:21.851Z,65.54
2022-09-28T10:08:27.854Z,65.22
2022-09-28T10:09:36.168Z,64.69
2022-09-28T10:10:56.092Z,65.39
2022-09-28T10:12:01.808Z,65.65
2022-09-28T10:13:06.942Z,66.12
2022-09-28T10:14:22.841Z,65.79
2022-09-28T10:15:33.099Z,66.71
2022-09-28T10:16:45.171Z,66.71
2022-09-28T10:17:52.778Z,67.08
2022-09-28T10:19:13.693Z,67.48
2022-09-28T10:20:44.799Z,66.41
2022-09-28T10:21:55.011Z,66.12
2022-09-28T10:23:02.650Z,66.21
2022-09-28T10:24:04.510Z,65.96
2022-09-28T10:25:10.213Z,66.27
2022-09-28T10:26:15.433Z,66.69
2022-09-28T10:27:18.579Z,67.12
2022-09-28T10:28:29.491Z,67.40
2022-09-28T10:29:36.985Z,66.21
2022-09-28T10:30:41.474Z,67.21
2022-09-28T10:31:44.791Z,67.08
2022-09-28T10:32:54.656Z,67.06
2022-09-28T10:33:57.218Z,65.50
2022-09-28T10:35:21.647Z,65.35
2022-09-28T10:36:27.600Z,65.68
2022-09-28T10:37:29.473Z,65.19
2022-09-28T10:38:37.092Z,65.49
2022-09-28T10:39:49.204Z,65.55
2022-09-28T10:40:55.534Z,65.60
2022-09-28T10:42:28.104Z,64.56
2022-09-28T10:43:33.102Z,64.60
2022-09-28T10:45:01.037Z,63.60
2022-09-28T10:46:21.363Z,63.50
2022-09-28T10:47:31.381Z,63.79
2022-09-28T10:48:46.783Z,64.45
2022-09-28T10:49:49.985Z,64.39
2022-09-28T10:51:01.430Z,64.51
2022-09-28T10:52:04.085Z,64.02
2022-09-28T10:53:26.638Z,64.05
2022-09-28T10:54:38.209Z,64.51
2022-09-28T10:55:41.137Z,64.66
2022-09-28T10:56:43.609Z,64.68
2022-09-28T10:57:50.650Z,65.04
2022-09-28T10:58:52.459Z,64.93
2022-09-28T11:00:04.950Z,64.85
2022-09-28T11:01:28.637Z,65.16
2022-09-28T11:02:35.669Z,65.79
2022-09-28T11:03:59.304Z,65.29
2022-09-28T11:05:05.024Z,65.15
2022-09-28T11:06:11.306Z,65.48
2022-09-28T11:07:20.441Z,65.93
2022-09-28T11:08:28.084Z,66.79
2022-09-28T11:09:33.123Z,65.98
2022-09-28T11:10:38.864Z,66.54
2022-09-28T11:11:46.127Z,67.10
2022-09-28T11:12:49.479Z,67.78
2022-09-28T11:13:57.040Z,67.81
2022-09-28T11:15:02.687Z,67.73
2022-09-28T11:16:05.109Z,68.01
2022-09-28T11:17:27.353Z,68.47
2022-09-28T11:18:31.791Z,69.10
2022-09-28T11:19:37.713Z,69.37
2022-09-28T11:20:43.124Z,69.31
2022-09-28T11:21:46.047Z,69.45
2022-09-28T11:22:50.966Z,70.15
2022-09-28T11:23:55.125Z,69.53
2022-09-28T11:25:14.029Z,69.22
2022-09-28T11:26:18.795Z,69.62
2022-09-28T11:27:25.018Z,69.63
2022-09-28T11:28:32.811Z,69.26
2022-09-28T11:29:41.218Z,68.54
2022-09-28T11:31:02.025Z,67.96
2022-09-28T11:32:15.671Z,67.76
2022-09-28T11:33:47.325Z,67.82
2022-09-28T11:35:18.722Z,67.74
2022-09-28T11:36:23.438Z,66.21
2022-09-28T11:37:33.668Z,66.60
2022-09-28T11:38:41.118Z,66.51
2022-09-28T11:39:58.488Z,66.15
2022-09-28T11:41:00.280Z,65.87
2022-09-28T11:42:05.161Z,66.55
2022-09-28T11:43:10.070Z,66.69
2022-09-28T11:44:35.644Z,66.82
2022-09-28T11:45:46.919Z,66.79
2022-09-28T11:47:00.113Z,66.55
2022-09-28T11:48:04.200Z,67.13
2022-09-28T11:49:16.039Z,66.67
2022-09-28T11:50:38.595Z,66.21
2022-09-28T11:51:41.683Z,65.06
2022-09-28T11:53:09.675Z,64.63
2022-09-28T11:54:13.734Z,65.00
2022-09-28T11:55:19.014Z,65.25
2022-09-28T11:56:39.653Z,62.65
2022-09-28T11:57:43.651Z,62.77
2022-09-28T11:58:48.701Z,61.76
2022-09-28T12:00:01.926Z,61.71
2022-09-28T12:01:08.044Z,61.59
2022-09-28T12:02:39.118Z,61.07
2022-09-28T12:03:50.437Z,60.35
2022-09-28T12:04:55.198Z,59.06
2022-09-28T12:06:00.398Z,59.77
2022-09-28T12:07:11.622Z,60.05
2022-09-28T12:08:17.625Z,59.18
2022-09-28T12:09:47.573Z,57.67
2022-09-28T12:10:57.597Z,57.73
2022-09-28T12:12:20.429Z,59.03
2022-09-28T12:13:26.962Z,57.78
2022-09-28T12:14:30.700Z,58.77
2022-09-28T12:16:06.877Z,58.38
2022-09-28T12:17:09.112Z,59.50
2022-09-28T12:18:33.718Z,59.73
2022-09-28T12:19:42.053Z,59.85
2022-09-28T12:20:49.226Z,59.71
2022-09-28T12:21:52.738Z,59.72
2022-09-28T12:23:14.607Z,59.61
2022-09-28T12:24:22.390Z,59.32
2022-09-28T12:25:24.192Z,58.61
2022-09-28T12:26:25.788Z,59.24
2022-09-28T12:27:32.421Z,59.11
2022-09-28T12:28:39.742Z,58.59
2022-09-28T12:30:02.412Z,58.90
2022-09-28T12:31:13.086Z,58.50
2022-09-28T12:32:14.948Z,59.20
2022-09-28T12:33:16.650Z,59.43
2022-09-28T12:34:18.815Z,59.90
2022-09-28T12:35:47.971Z,60.19
2022-09-28T12:36:49.859Z,60.45
2022-09-28T12:37:54.679Z,59.56
2022-09-28T12:39:40.962Z,59.39
2022-09-28T12:40:37.840Z,60.39
2022-09-28T12:42:06.010Z,60.55
2022-09-28T12:43:28.520Z,61.02
2022-09-28T12:44:45.734Z,61.63
2022-09-28T12:46:17.277Z,62.14
2022-09-28T12:47:29.852Z,62.39
2022-09-28T12:48:37.634Z,62.64
2022-09-28T12:51:30.949Z,63.17
2022-09-28T12:54:04.664Z,63.59
2022-09-28T12:55:14.673Z,63.54
2022-09-28T12:56:20.862Z,63.66
2022-09-28T12:57:37.369Z,63.88
2022-09-28T12:58:44.085Z,63.65
2022-09-28T13:00:02.740Z,64.32
2022-09-28T13:01:07.951Z,64.73
2022-09-28T13:02:15.793Z,64.87
2022-09-28T13:03:46.989Z,65.12
2022-09-28T13:05:08.899Z,65.19
2022-09-28T13:06:29.171Z,65.16
2022-09-28T13:07:33.598Z,65.40
2022-09-28T13:08:47.713Z,65.05
2022-09-28T13:09:55.595Z,64.91
2022-09-28T13:11:15.834Z,65.13
2022-09-28T13:12:25.541Z,65.44
2022-09-28T13:13:45.779Z,65.42
2022-09-28T13:14:57.943Z,65.21
2022-09-28T13:16:05.635Z,65.33
2022-09-28T13:17:09.989Z,65.50
2022-09-28T13:18:17.615Z,65.61
2022-09-28T13:19:28.554Z,65.41
2022-09-28T13:20:35.233Z,65.56
2022-09-28T13:21:52.077Z,65.63
2022-09-28T13:23:26.339Z,65.59
2022-09-28T13:24:33.352Z,65.62
2022-09-28T13:25:36.437Z,65.61
2022-09-28T13:26:41.563Z,65.94
2022-09-28T13:27:47.794Z,65.47
2022-09-28T13:28:50.933Z,65.78
2022-09-28T13:29:58.761Z,66.14
2022-09-28T13:31:03.429Z,66.27
2022-09-28T13:32:07.981Z,66.23
2022-09-28T13:33:15.108Z,66.43
2022-09-28T13:34:20.173Z,66.84
2022-09-28T13:35:22.356Z,67.17
2022-09-28T13:36:29.995Z,67.15
2022-09-28T13:37:33.849Z,67.18
2022-09-28T13:38:49.098Z,67.25
2022-09-28T13:40:05.511Z,67.39
2022-09-28T13:41:09.298Z,67.41
2022-09-28T13:42:21.201Z,67.63
2022-09-28T13:43:31.299Z,67.76
2022-09-28T13:44:46.581Z,68.10
2022-09-28T13:46:08.496Z,68.05
2022-09-28T13:47:10.175Z,68.07
2022-09-28T13:48:30.577Z,68.21
2022-09-28T13:49:41.075Z,68.12
2022-09-28T13:50:45.614Z,67.86
2022-09-28T13:51:59.338Z,68.19
2022-09-28T13:53:03.101Z,67.99
2022-09-28T13:54:06.289Z,67.96
2022-09-28T13:55:16.268Z,67.91
2022-09-28T13:56:33.689Z,67.99
2022-09-28T13:57:41.239Z,68.15
2022-09-28T13:58:45.443Z,68.31
2022-09-28T13:59:55.945Z,68.28
2022-09-28T14:01:00.381Z,68.36
2022-09-28T14:02:13.883Z,68.17
2022-09-28T14:03:19.041Z,67.93
2022-09-28T14:04:26.169Z,67.94
2022-09-28T14:05:33.853Z,67.79
2022-09-28T14:06:35.815Z,67.85
2022-09-28T14:07:37.448Z,68.07
2022-09-28T14:09:04.670Z,67.85
2022-09-28T14:10:15.509Z,67.84
2022-09-28T14:11:39.651Z,67.75
2022-09-28T14:12:51.044Z,67.48
2022-09-28T14:13:58.520Z,67.07
2022-09-28T14:15:00.626Z,67.26
2022-09-28T14:16:17.629Z,67.14
2022-09-28T14:17:19.203Z,67.39
2022-09-28T14:18:33.451Z,66.98
2022-09-28T14:19:35.114Z,66.96
2022-09-28T14:20:36.839Z,66.50
2022-09-28T14:21:57.691Z,66.33
2022-09-28T14:23:21.969Z,66.07
2022-09-28T14:24:44.660Z,66.28
2022-09-28T14:25:58.676Z,66.05
2022-09-28T14:27:23.424Z,66.12
2022-09-28T14:28:43.593Z,66.09
2022-09-28T14:29:45.245Z,66.37
2022-09-28T14:30:47.808Z,66.63
2022-09-28T14:31:49.484Z,66.47
2022-09-28T14:33:21.746Z,66.40
2022-09-28T14:34:42.116Z,66.78
2022-09-28T14:35:47.734Z,66.47
2022-09-28T14:37:10.352Z,66.45
2022-09-28T14:38:34.428Z,66.46
2022-09-28T14:39:56.387Z,66.69
2022-09-28T14:41:10.275Z,67.03
2022-09-28T14:42:20.675Z,67.25
2022-09-28T14:43:25.246Z,67.25
2022-09-28T14:44:26.845Z,67.08
2022-09-28T14:45:35.851Z,67.27
2022-09-28T14:46:45.115Z,67.44
2022-09-28T14:48:05.319Z,67.64
2022-09-28T14:49:09.487Z,67.76
2022-09-28T14:50:37.575Z,67.87
2022-09-28T14:51:41.794Z,67.70
2022-09-28T14:52:48.695Z,67.95
2022-09-28T14:53:51.028Z,68.10
2022-09-28T14:54:56.772Z,67.89
2022-09-28T14:55:59.232Z,67.65
2022-09-28T14:57:07.547Z,67.63
2022-09-28T14:58:15.736Z,67.68
2022-09-28T14:59:18.686Z,67.65
2022-09-28T15:00:21.792Z,67.49
2022-09-28T15:01:24.964Z,67.51
2022-09-28T15:02:31.314Z,67.13